createdAt,value
2023-01-19T00:04:12.453Z,5.76
2023-01-19T00:09:16.746Z,8.12
2023-01-19T00:14:21.084Z,8.96
2023-01-19T00:19:22.942Z,6.73
2023-01-19T00:24:25.537Z,5.75
2023-01-19T00:29:30.930Z,7.78
2023-01-19T00:34:39.618Z,8.61
2023-01-19T00:39:41.404Z,7.77
2023-01-19T00:44:42.997Z,5.15
2023-01-19T00:49:44.680Z,3.55
2023-01-19T00:54:46.423Z,3.82
2023-01-19T00:59:48.154Z,6.47
2023-01-19T01:04:54.878Z,7.35
2023-01-19T01:09:56.764Z,8.02
2023-01-19T01:14:58.526Z,8.56
2023-01-19T01:20:00.434Z,7.83
2023-01-19T01:25:02.125Z,5.42
2023-01-19T01:30:04.434Z,4.97
2023-01-19T01:35:09.074Z,6.96
2023-01-19T01:40:14.234Z,7.68
2023-01-19T01:45:32.950Z,8.17
2023-01-19T01:51:01.469Z,8.42
2023-01-19T01:56:07.531Z,8.15
2023-01-19T02:01:29.224Z,7.73
2023-01-19T02:06:31.164Z,7.60
2023-01-19T02:11:54.211Z,7.79
2023-01-19T02:16:56.181Z,8.02
2023-01-19T02:22:07.898Z,8.04
2023-01-19T02:27:11.762Z,8.02
2023-01-19T02:32:13.524Z,8.37
2023-01-19T02:37:17.184Z,8.31
2023-01-19T02:42:25.573Z,6.11
2023-01-19T02:47:27.249Z,5.13
2023-01-19T02:52:29.203Z,6.00
2023-01-19T02:57:43.651Z,6.27
2023-01-19T03:03:09.189Z,6.31
2023-01-19T03:08:22.763Z,6.98
2023-01-19T03:13:49.501Z,7.59
2023-01-19T03:18:55.688Z,8.14
2023-01-19T03:24:03.186Z,8.11
2023-01-19T03:29:07.241Z,7.25
2023-01-19T03:34:13.838Z,7.43
2023-01-19T03:39:21.539Z,7.73
2023-01-19T03:44:26.808Z,7.38
2023-01-19T03:49:31.449Z,4.89
2023-01-19T03:54:33.235Z,4.73
2023-01-19T03:59:35.146Z,7.09
2023-01-19T04:04:36.979Z,8.24
2023-01-19T04:09:38.822Z,8.14
2023-01-19T04:14:40.508Z,6.34
2023-01-19T04:19:43.267Z,5.33
2023-01-19T04:24:44.928Z,7.39
2023-01-19T04:29:46.703Z,7.14
2023-01-19T04:34:48.405Z,4.71
2023-01-19T04:39:50.090Z,5.48
2023-01-19T04:44:52.539Z,7.18
2023-01-19T04:49:54.194Z,8.09
2023-01-19T04:54:56.287Z,7.33
2023-01-19T04:59:58.674Z,4.69
2023-01-19T05:05:00.713Z,4.39
2023-01-19T05:10:02.446Z,6.76
2023-01-19T05:15:04.663Z,7.97
2023-01-19T05:20:07.093Z,8.51
2023-01-19T05:25:09.474Z,6.53
2023-01-19T05:30:12.992Z,5.33
2023-01-19T05:35:16.684Z,6.66
2023-01-19T05:40:19.904Z,6.40
2023-01-19T05:45:21.567Z,6.37
2023-01-19T05:50:23.305Z,6.40
2023-01-19T05:55:24.960Z,6.94
2023-01-19T06:00:27.434Z,8.40
2023-01-19T06:05:29.731Z,8.41
2023-01-19T06:10:31.485Z,5.91
2023-01-19T06:15:33.439Z,4.18
2023-01-19T06:20:35.756Z,4.89
2023-01-19T06:25:37.440Z,4.64
2023-01-19T06:30:39.301Z,4.01
2023-01-19T06:35:42.966Z,3.85
2023-01-19T06:40:45.774Z,3.54
2023-01-19T06:45:47.686Z,4.06
2023-01-19T06:50:49.848Z,3.94
2023-01-19T06:55:51.569Z,3.99
2023-01-19T07:00:54.011Z,4.55
2023-01-19T07:05:56.935Z,4.18
2023-01-19T07:11:25.651Z,5.01
2023-01-19T07:16:21.881Z,5.56
2023-01-19T07:21:23.773Z,5.54
2023-01-19T07:26:25.950Z,5.62
2023-01-19T07:31:27.696Z,5.37
2023-01-19T07:36:29.561Z,5.86
2023-01-19T07:41:31.293Z,6.02
2023-01-19T07:46:33.032Z,6.20
2023-01-19T07:51:35.236Z,6.11
2023-01-19T07:56:36.929Z,5.88
2023-01-19T08:01:39.217Z,6.58
2023-01-19T08:06:44.754Z,6.20
2023-01-19T08:11:46.547Z,6.46
2023-01-19T08:16:48.867Z,6.88
2023-01-19T08:21:50.539Z,6.58
2023-01-19T08:27:03.584Z,7.29
2023-01-19T08:32:06.768Z,7.13
2023-01-19T08:37:08.631Z,7.81
2023-01-19T08:42:10.340Z,8.05
2023-01-19T08:47:12.132Z,7.43
2023-01-19T08:52:13.860Z,7.06
2023-01-19T08:57:16.267Z,6.26
2023-01-19T09:02:18.203Z,6.44
2023-01-19T09:07:20.105Z,6.88
2023-01-19T09:12:21.943Z,6.32
2023-01-19T09:17:23.724Z,6.48
2023-01-19T09:22:25.453Z,6.68
2023-01-19T09:27:27.198Z,6.32
2023-01-19T09:32:28.968Z,7.41
2023-01-19T09:37:30.683Z,7.20
2023-01-19T09:42:35.187Z,7.49
2023-01-19T09:47:38.864Z,6.86
2023-01-19T09:52:43.097Z,7.33
2023-01-19T09:57:45.229Z,7.27
2023-01-19T10:02:52.968Z,6.94
2023-01-19T10:07:54.933Z,6.53
2023-01-19T10:12:59.871Z,6.63
2023-01-19T10:20:23.973Z,6.47
2023-01-19T10:25:27.436Z,6.64
2023-01-19T10:30:30.242Z,7.16
2023-01-19T10:35:32.134Z,7.10
2023-01-19T10:40:57.138Z,7.06
2023-01-19T10:45:58.947Z,6.67
2023-01-19T10:51:04.959Z,6.86
2023-01-19T10:56:32.146Z,7.31
2023-01-19T11:01:37.187Z,8.15
2023-01-19T11:06:39.227Z,8.38
2023-01-19T11:11:59.033Z,7.48
2023-01-19T11:17:00.781Z,8.05
2023-01-19T11:22:30.245Z,8.68
2023-01-19T11:27:35.976Z,7.67
2023-01-19T11:32:37.877Z,7.20
2023-01-19T11:37:42.852Z,8.38
2023-01-19T11:42:44.927Z,7.66
2023-01-19T11:47:52.542Z,6.51
2023-01-19T11:53:18.711Z,7.90
2023-01-19T11:58:20.825Z,7.57
2023-01-19T12:03:31.366Z,7.16
2023-01-19T12:08:42.360Z,7.20
2023-01-19T12:13:46.119Z,7.75
2023-01-19T12:18:55.735Z,8.07
2023-01-19T12:24:27.227Z,8.21
2023-01-19T12:29:33.192Z,7.59
2023-01-19T12:34:48.193Z,6.49
2023-01-19T12:39:49.893Z,6.80
2023-01-19T12:45:25.599Z,7.12
2023-01-19T12:50:32.256Z,7.77
2023-01-19T12:55:38.995Z,7.51
2023-01-19T13:00:44.809Z,7.28
2023-01-19T13:05:49.030Z,6.93
2023-01-19T13:11:05.485Z,7.28
2023-01-19T13:16:19.702Z,7.06
2023-01-19T13:21:45.629Z,7.24
2023-01-19T13:26:50.472Z,6.99
2023-01-19T13:32:02.375Z,6.78
2023-01-19T13:37:06.185Z,7.49
2023-01-19T13:42:15.982Z,6.77
2023-01-19T13:47:33.419Z,7.34
2023-01-19T13:52:35.160Z,7.05
2023-01-19T13:57:45.481Z,7.08
2023-01-19T14:02:53.694Z,7.22
2023-01-19T14:08:08.933Z,7.17
2023-01-19T14:13:22.782Z,7.37
2023-01-19T14:18:30.548Z,7.38
2023-01-19T14:23:50.949Z,8.02
2023-01-19T14:28:53.304Z,7.63
2023-01-19T14:33:55.877Z,6.49
2023-01-19T14:39:00.198Z,7.86
2023-01-19T14:44:03.141Z,8.10
2023-01-19T14:49:06.562Z,7.39
2023-01-19T14:54:17.447Z,6.66
2023-01-19T14:59:19.338Z,7.65
2023-01-19T15:04:21.317Z,7.34
2023-01-19T15:09:23.613Z,7.65
2023-01-19T15:14:27.895Z,7.42
2023-01-19T15:19:29.626Z,6.64
2023-01-19T15:24:31.198Z,6.06
2023-01-19T15:29:36.515Z,6.41
2023-01-19T15:34:38.222Z,6.70
2023-01-19T15:39:39.962Z,6.28
2023-01-19T15:44:41.690Z,6.25
2023-01-19T15:49:45.423Z,5.86
2023-01-19T15:54:47.123Z,5.68
2023-01-19T15:59:48.933Z,6.03
2023-01-19T16:04:50.657Z,6.74
2023-01-19T16:09:52.379Z,6.98
2023-01-19T16:14:54.087Z,7.05
2023-01-19T16:19:55.917Z,7.81
2023-01-19T16:24:58.039Z,7.67
2023-01-19T16:30:05.164Z,6.89
2023-01-19T16:35:06.990Z,5.95
2023-01-19T16:40:11.756Z,6.02
2023-01-19T16:45:15.800Z,5.93
2023-01-19T16:50:21.033Z,6.29
2023-01-19T16:55:22.745Z,6.05
2023-01-19T17:00:24.647Z,6.14
2023-01-19T17:05:27.553Z,6.21
2023-01-19T17:10:29.277Z,6.19
2023-01-19T17:15:31.497Z,6.41
2023-01-19T17:20:34.055Z,6.33
2023-01-19T17:25:42.703Z,6.17
2023-01-19T17:30:44.622Z,6.05
2023-01-19T17:35:46.944Z,5.86
2023-01-19T17:40:48.746Z,5.45
2023-01-19T17:45:50.370Z,5.80
2023-01-19T17:50:54.251Z,6.02
2023-01-19T17:55:55.901Z,6.20
2023-01-19T18:00:58.333Z,6.76
2023-01-19T18:06:00.229Z,6.47
2023-01-19T18:11:03.008Z,6.09
2023-01-19T18:16:08.108Z,5.97
2023-01-19T18:21:12.634Z,5.55
2023-01-19T18:26:21.071Z,6.08
2023-01-19T18:31:27.080Z,5.84
2023-01-19T18:36:29.038Z,5.84
2023-01-19T18:41:35.654Z,5.78
2023-01-19T18:46:38.392Z,5.76
2023-01-19T18:51:41.706Z,6.29
2023-01-19T18:56:43.428Z,6.55
2023-01-19T19:01:45.403Z,6.41
2023-01-19T19:06:47.335Z,6.52
2023-01-19T19:11:49.077Z,7.01
2023-01-19T19:16:50.796Z,7.72
2023-01-19T19:21:53.907Z,7.82
2023-01-19T19:26:55.687Z,6.99
2023-01-19T19:31:57.389Z,7.58
2023-01-19T19:37:01.115Z,7.58
2023-01-19T19:42:03.042Z,7.43
2023-01-19T19:47:04.814Z,7.14
2023-01-19T19:52:09.208Z,6.52
2023-01-19T19:57:10.822Z,6.12
2023-01-19T20:02:12.909Z,6.32
2023-01-19T20:07:17.161Z,6.12
2023-01-19T20:12:19.830Z,6.35
2023-01-19T20:17:21.603Z,5.84
2023-01-19T20:22:23.476Z,6.30
2023-01-19T20:27:25.444Z,7.13
2023-01-19T20:32:27.407Z,6.77
2023-01-19T20:37:29.471Z,6.52
2023-01-19T20:42:31.444Z,6.60
2023-01-19T20:47:33.224Z,7.87
2023-01-19T20:52:36.058Z,8.27
2023-01-19T20:57:37.759Z,8.35
2023-01-19T21:02:39.637Z,8.63
2023-01-19T21:07:41.404Z,6.46
2023-01-19T21:12:44.141Z,7.46
2023-01-19T21:17:45.973Z,8.11
2023-01-19T21:22:47.945Z,8.28
2023-01-19T21:27:50.848Z,8.04
2023-01-19T21:32:52.789Z,7.99
2023-01-19T21:37:54.769Z,7.28
2023-01-19T21:42:56.690Z,7.65
2023-01-19T21:47:58.391Z,7.59
2023-01-19T21:53:00.235Z,6.67
2023-01-19T21:58:02.057Z,6.98
2023-01-19T22:03:04.836Z,8.02
2023-01-19T22:08:06.925Z,8.05
2023-01-19T22:13:09.462Z,7.66
2023-01-19T22:18:11.649Z,6.64
2023-01-19T22:23:23.903Z,7.66
2023-01-19T22:28:25.685Z,8.25
2023-01-19T22:33:28.124Z,7.07
2023-01-19T22:38:30.085Z,6.12
2023-01-19T22:43:31.770Z,7.84
2023-01-19T22:48:41.694Z,8.11
2023-01-19T22:53:43.664Z,7.37
2023-01-19T22:58:46.810Z,7.98
2023-01-19T23:03:49.333Z,7.04
2023-01-19T23:08:51.731Z,6.62
2023-01-19T23:13:58.009Z,6.60
2023-01-19T23:19:01.333Z,7.05
2023-01-19T23:24:05.181Z,6.71
2023-01-19T23:29:11.066Z,7.38
2023-01-19T23:34:13.412Z,6.89
2023-01-19T23:39:18.464Z,5.71
2023-01-19T23:44:20.318Z,6.39
2023-01-19T23:49:22.036Z,7.15
2023-01-19T23:54:23.801Z,6.88
2023-01-19T23:59:25.876Z,5.13
